Flight Track Log - Related Links

Times and Time Zones

All times are in EDT time to prevent confusion due to time zone crossing. See the G-EZBG flight status page for this flight to view local times or setup timezone preferences in your user account.

Time Position Orientation Groundspeed Altitude Reporting Facility
EDT Latitude Longitude Course Direction KTS MPH feet Rate Location/Type
Tue 01:11:00 AM 45.0822 9.8362 125° Southeast  Level Estimated
Tue 01:12:00 AM 45.0319 9.9359 126° Southeast  Level Estimated
Tue 01:13:00 AM 44.9814 10.0353 126° Southeast  Level Estimated
Tue 01:13:53 AM 45.6730 8.9330 126° Southeast 298 343 9,300  Level FlightAware ADS-B
Tue 01:14:00 AM 44.9309 10.1347 126° Southeast  Level Estimated
Tue 01:15:00 AM 44.8802 10.2338 126° Southeast  Level Estimated
Tue 01:15:38 AM 45.5730 9.0940 132° Southeast 351 404 14,000  Level FlightAware ADS-B
Tue 01:17:58 AM 45.4030 9.3700 126° Southeast 419 482 19,400 2,333 Climbing FlightAware ADS-B
Tue 01:18:00 AM 45.4529 9.3308 126° Southeast  Level Estimated
Tue 01:18:38 AM 45.3520 9.4520 131° Southeast 428 493 21,000  Level FlightAware ADS-B
Tue 01:19:23 AM 45.2930 9.5480 131° Southeast 436 502 22,800 2,118 Climbing FlightAware ADS-B
Tue 01:20:03 AM 45.2380 9.6350 132° Southeast 451 519 24,000 1,765 Climbing FlightAware ADS-B
Tue 01:20:48 AM 45.1740 9.7360 132° Southeast 464 534 25,300 1,624 Climbing FlightAware ADS-B
Tue 01:21:28 AM 45.1160 9.8300 131° Southeast 479 551 26,300 1,575 Climbing FlightAware ADS-B
Tue 01:22:08 AM 45.0580 9.9220 132° Southeast 486 559 27,400 1,694 Climbing FlightAware ADS-B
Tue 01:22:53 AM 44.9880 10.0320 132° Southeast 492 566 28,700 1,624 Climbing FlightAware ADS-B
Tue 01:23:33 AM 44.9270 10.1280 132° Southeast 499 574 29,700 1,553 Climbing FlightAware ADS-B
Tue 01:24:18 AM 44.8580 10.2370 132° Southeast 501 577 30,900 1,271 Climbing FlightAware ADS-B
Tue 01:24:58 AM 44.7960 10.3330 132° Southeast 503 579 31,500 1,500 Climbing FlightAware ADS-B
Tue 01:25:38 AM 44.7330 10.4220 135° Southeast 494 568 32,900 1,553 Climbing FlightAware ADS-B
Tue 01:26:23 AM 44.6560 10.5300 135° Southeast 506 582 33,700 1,271 Climbing FlightAware ADS-B
Tue 01:27:03 AM 44.5900 10.6240 135° Southeast 506 582 34,700 1,350 Climbing FlightAware ADS-B
Tue 01:27:43 AM 44.5280 10.7110 135° Southeast 507 583 35,500 1,650 Climbing FlightAware ADS-B
Tue 01:28:23 AM 44.4620 10.8050 135° Southeast 494 568 36,900 1,059 Climbing FlightAware ADS-B
Tue 01:29:08 AM 44.3860 10.9100 135° Southeast 496 571 37,000 67 Climbing FlightAware ADS-B
Tue 01:29:53 AM 44.3180 11.0060 135° Southeast 492 566 37,000  Level FlightAware ADS-B
Tue 01:30:33 AM 44.2500 11.1020 135° Southeast 494 568 37,000  Level FlightAware ADS-B
Tue 01:31:18 AM 44.1920 11.2240 124° Southeast 506 582 37,000  Level FlightAware ADS-B
Tue 01:31:58 AM 44.1430 11.3370 121° Southeast 507 583 37,000 75 Level FlightAware ADS-B
Tue 01:32:38 AM 44.0940 11.4480 122° Southeast 506 582 37,100  Climbing FlightAware ADS-B
Tue 01:33:23 AM 44.0420 11.5660 121° Southeast 506 582 37,000 -48 Descending FlightAware ADS-B
Tue 01:34:43 AM 43.9460 11.7850 121° Southeast 500 575 37,000  Level FlightAware ADS-B
Tue 01:35:28 AM 43.8900 11.9100 122° Southeast 499 574 37,000  Level FlightAware ADS-B
Tue 01:36:08 AM 43.8400 12.0230 121° Southeast 498 573 37,000  Level FlightAware ADS-B
Tue 01:36:48 AM 43.7920 12.1310 122° Southeast 499 574 37,000  Level FlightAware ADS-B
Tue 01:37:33 AM 43.7360 12.2540 122° Southeast 498 573 37,000  Level FlightAware ADS-B
Tue 01:38:13 AM 43.6870 12.3640 122° Southeast 507 583 37,000  Level FlightAware ADS-B
Tue 01:38:58 AM 43.6310 12.4860 122° Southeast 502 578 37,000 71 Level FlightAware ADS-B
Tue 01:39:38 AM 43.5830 12.5920 122° Southeast 499 574 37,100  Climbing FlightAware ADS-B
Tue 01:40:23 AM 43.5270 12.7160 122° Southeast 498 573 37,000 -71 Descending FlightAware ADS-B
Tue 01:41:03 AM 43.4770 12.8250 122° Southeast 499 574 37,000  Level FlightAware ADS-B
Tue 01:41:43 AM 43.4330 12.9200 123° Southeast 497 572 37,000  Level FlightAware ADS-B
Tue 01:42:28 AM 43.3720 13.0520 122° Southeast 496 571 37,000  Level FlightAware ADS-B
Tue 01:43:08 AM 43.3220 13.1610 122° Southeast 495 570 37,000  Level FlightAware ADS-B
Tue 01:43:53 AM 43.2670 13.2780 123° Southeast 495 570 37,000  Level FlightAware ADS-B
Tue 01:44:33 AM 43.2150 13.3890 123° Southeast 495 570 37,000  Level FlightAware ADS-B
Tue 01:45:18 AM 43.1600 13.5080 122° Southeast 504 580 37,000  Level FlightAware ADS-B
Tue 01:45:58 AM 43.1090 13.6150 123° Southeast 502 578 37,000  Level FlightAware ADS-B
Tue 01:46:38 AM 43.0650 13.7090 123° Southeast 501 577 37,000  Level FlightAware ADS-B
Tue 01:47:23 AM 43.0040 13.8360 123° Southeast 505 581 37,000 71 Level FlightAware ADS-B
Tue 01:48:03 AM 42.9550 13.9400 123° Southeast 501 577 37,100  Climbing FlightAware ADS-B
Tue 01:48:43 AM 42.9040 14.0470 123° Southeast 502 578 37,000 -71 Descending FlightAware ADS-B
Tue 01:49:28 AM 42.8450 14.1710 123° Southeast 507 583 37,000  Level FlightAware ADS-B
Tue 01:50:08 AM 42.7950 14.2750 123° Southeast 507 583 37,000 75 Level FlightAware ADS-B
Tue 01:50:48 AM 42.7510 14.3640 124° Southeast 505 581 37,100  Climbing FlightAware ADS-B
Tue 01:51:28 AM 42.6960 14.4790 123° Southeast 505 581 37,000 -63 Descending FlightAware ADS-B
Tue 01:52:23 AM 42.6260 14.6220 124° Southeast 502 578 37,000  Level FlightAware ADS-B
Tue 01:53:08 AM 42.5610 14.7550 124° Southeast 497 572 37,000 -1,096 Level FlightAware ADS-B
Tue 01:55:00 AM 42.4344 14.9392 133° Southeast  Level Estimated
Tue 01:56:00 AM 42.3665 15.0376 133° Southeast  Level Estimated
Tue 01:56:13 AM 42.3190 15.2440 133° Southeast 500 575 32,800  Level FlightAware ADS-B
Tue 01:56:58 AM 42.2640 15.3560 124° Southeast 490 564 31,100 -2,259 Descending FlightAware ADS-B
Tue 01:57:38 AM 42.2140 15.4550 124° Southeast 483 556 29,600 -1,950 Descending FlightAware ADS-B
Tue 01:58:18 AM 42.1620 15.5530 126° Southeast 480 552 28,500 -1,482 Descending FlightAware ADS-B
Tue 01:59:03 AM 42.1000 15.6590 128° Southeast 474 545 27,500 -1,694 Descending FlightAware ADS-B
Tue 01:59:43 AM 42.0450 15.7540 128° Southeast 464 534 26,100 -2,047 Descending FlightAware ADS-B
Tue 02:00:28 AM 41.9880 15.8530 128° Southeast 454 522 24,600 -1,976 Descending FlightAware ADS-B
Tue 02:01:08 AM 41.9370 15.9410 128° Southeast 445 512 23,300 -1,950 Descending FlightAware ADS-B
Tue 02:01:48 AM 41.8870 16.0270 128° Southeast 435 501 22,000 -1,976 Descending FlightAware ADS-B
Tue 02:02:33 AM 41.8320 16.1230 128° Southeast 424 488 20,500 -1,976 Descending FlightAware ADS-B
Tue 02:03:13 AM 41.7830 16.2060 128° Southeast 415 478 19,200 -1,835 Descending FlightAware ADS-B
Tue 02:03:58 AM 41.7320 16.2940 128° Southeast 405 466 17,900 -1,835 Descending FlightAware ADS-B
Tue 02:04:38 AM 41.6860 16.3720 128° Southeast 393 452 16,600 -1,875 Descending FlightAware ADS-B
Tue 02:05:18 AM 41.6420 16.4470 128° Southeast 381 438 15,400 -1,765 Descending FlightAware ADS-B
Tue 02:06:03 AM 41.5930 16.5300 128° Southeast 366 421 14,100 -1,694 Descending FlightAware ADS-B
Tue 02:06:43 AM 41.5530 16.5980 128° Southeast 353 406 13,000 -1,624 Descending FlightAware ADS-B
Tue 02:07:28 AM 41.5070 16.6680 131° Southeast 339 390 11,800 -1,694 Descending FlightAware ADS-B
Tue 02:08:08 AM 41.4630 16.7290 134° Southeast 330 380 10,600 -1,350 Descending FlightAware ADS-B
Tue 02:08:48 AM 41.4220 16.7860 134° Southeast 308 354 10,000 -1,091 Descending FlightAware ADS-B
Tue 02:09:03 AM 41.4080 16.8100 128° Southeast 307 353 9,600 -1,400 Descending FlightAware ADS-B
Tue 02:09:18 AM 41.4040 16.8360 102° East 303 349 9,300 -1,467 Descending FlightAware ADS-B
Tue 02:09:48 AM 41.3960 16.8910 101° East 298 343 8,500 -1,636 Descending FlightAware ADS-B
Tue 02:10:13 AM 41.3830 16.9340 112° Southeast 298 343 7,800 -1,745 Descending FlightAware ADS-B
Tue 02:10:43 AM 41.3610 16.9800 122° Southeast 297 342 6,900 -1,800 Descending FlightAware ADS-B
Tue 02:10:53 AM 41.3500 16.9910 143° Southeast 294 338 6,600 -1,800 Descending FlightAware ADS-B
Tue 02:11:23 AM 41.3140 17.0130 155° Southeast 279 321 5,700 -1,900 Descending FlightAware ADS-B
Tue 02:11:53 AM 41.2790 17.0340 156° South 268 308 4,700 -1,527 Descending FlightAware ADS-B
Tue 02:12:18 AM 41.2530 17.0490 157° South 249 287 4,300 -720 Descending FlightAware ADS-B
Tue 02:12:43 AM 41.2290 17.0590 163° South 228 262 4,100 -436 Descending FlightAware ADS-B
Tue 02:13:13 AM 41.2080 17.0390 216° Southwest 179 206 3,900 -700 Descending FlightAware ADS-B
Tue 02:13:43 AM 41.2000 17.0070 252° West 175 201 3,400 -1,200 Descending FlightAware ADS-B
Tue 02:13:58 AM 41.1960 16.9900 253° West 175 201 3,000 -1,200 Descending FlightAware ADS-B
Tue 02:14:23 AM 41.1900 16.9660 252° West 176 203 2,600 -1,091 Descending FlightAware ADS-B
Tue 02:14:53 AM 41.1830 16.9360 253° West 172 198 2,000 -900 Descending FlightAware ADS-B
Tue 02:15:23 AM 41.1760 16.9080 252° West 133 153 1,700 -218 Descending FlightAware ADS-B
Tue 02:15:48 AM 41.1720 16.8900 254° West 121 139 1,800 -109 Climbing FlightAware ADS-B
Tue 02:16:18 AM 41.1660 16.8680 250° West 119 137 1,600 -545 Descending FlightAware ADS-B
Tue 02:16:43 AM 41.1640 16.8510 261° West 116 133 1,300 -545 Descending FlightAware ADS-B
Tue 02:17:13 AM 41.1590 16.8310 252° West 117 135 1,100 -500 Descending FlightAware ADS-B
Tue 02:17:43 AM 41.1530 16.8110 248° West 117 135 800 -750 Descending FlightAware ADS-B
Tue 02:17:53 AM 41.1510 16.8040 249° West 118 136 600 -750 Descending FlightAware ADS-B
Tue 02:18:23 AM 41.1450 16.7840 248° West 124 143 300 -600 Descending FlightAware ADS-B

Login

Don't have an account? Register now (free) for customized features, flight alerts, and more!